createdAt,value
2016-02-17T00:00:39.686Z,0
2016-02-17T00:01:39.688Z,0
2016-02-17T00:02:39.691Z,0
2016-02-17T00:03:39.537Z,0
2016-02-17T00:04:39.697Z,0
2016-02-17T00:05:39.700Z,0
2016-02-17T00:06:39.686Z,0
2016-02-17T00:07:39.674Z,0
2016-02-17T00:08:39.676Z,0
2016-02-17T00:09:39.679Z,0
2016-02-17T00:10:39.681Z,0
2016-02-17T00:11:39.685Z,0
2016-02-17T00:12:39.687Z,0
2016-02-17T00:13:39.690Z,0
2016-02-17T00:14:39.708Z,0
2016-02-17T00:15:39.695Z,0
2016-02-17T00:16:39.729Z,0
2016-02-17T00:17:39.700Z,0
2016-02-17T00:18:39.687Z,0
2016-02-17T00:19:39.659Z,0
2016-02-17T00:20:39.661Z,0
2016-02-17T00:21:39.664Z,0
2016-02-17T00:22:39.667Z,0
2016-02-17T00:23:39.669Z,0
2016-02-17T00:24:39.672Z,0
2016-02-17T00:25:39.659Z,0
2016-02-17T00:26:39.678Z,0
2016-02-17T00:27:39.665Z,0
2016-02-17T00:28:39.667Z,0
2016-02-17T00:29:39.670Z,0
2016-02-17T00:30:39.677Z,0
2016-02-17T00:31:39.665Z,0
2016-02-17T00:32:39.668Z,0
2016-02-17T00:33:39.671Z,0
2016-02-17T00:34:39.657Z,0
2016-02-17T00:35:39.660Z,0
2016-02-17T00:36:39.663Z,0
2016-02-17T00:37:39.696Z,0
2016-02-17T00:38:39.684Z,0
2016-02-17T00:39:39.654Z,0
2016-02-17T00:40:39.658Z,0
2016-02-17T00:41:39.645Z,0
2016-02-17T00:42:39.648Z,0
2016-02-17T00:43:39.650Z,0
2016-02-17T00:44:39.496Z,0
2016-02-17T00:45:39.671Z,0
2016-02-17T00:46:39.659Z,0
2016-02-17T00:47:39.645Z,0
2016-02-17T00:48:39.648Z,0
2016-02-17T00:49:39.667Z,0
2016-02-17T00:50:39.669Z,0
2016-02-17T00:51:39.672Z,0
2016-02-17T00:52:39.627Z,0
2016-02-17T00:53:39.631Z,0
2016-02-17T00:54:39.633Z,0
2016-02-17T00:55:39.620Z,0
2016-02-17T00:56:39.653Z,0
2016-02-17T00:57:39.641Z,0
2016-02-17T00:58:39.659Z,0
2016-02-17T00:59:39.646Z,0
2016-02-17T01:00:39.664Z,0
2016-02-17T01:01:39.636Z,0
2016-02-17T01:02:39.639Z,0
2016-02-17T01:03:39.641Z,0
2016-02-17T01:04:39.644Z,0
2016-02-17T01:05:39.631Z,0
2016-02-17T01:06:39.666Z,0
2016-02-17T01:07:39.652Z,0
2016-02-17T01:08:39.655Z,0
2016-02-17T01:09:39.642Z,0
2016-02-17T01:10:39.676Z,0
2016-02-17T01:11:39.616Z,0
2016-02-17T01:12:39.618Z,0
2016-02-17T01:13:39.621Z,0
2016-02-17T01:14:39.624Z,0
2016-02-17T01:15:39.626Z,0
2016-02-17T01:16:39.614Z,0
2016-02-17T01:17:39.617Z,0
2016-02-17T01:18:39.620Z,0
2016-02-17T01:19:39.637Z,0
2016-02-17T01:20:39.640Z,0
2016-02-17T01:21:39.611Z,0
2016-02-17T01:22:39.615Z,0
2016-02-17T01:23:39.617Z,0
2016-02-17T01:24:39.589Z,0
2016-02-17T01:25:39.607Z,0
2016-02-17T01:26:39.625Z,0
2016-02-17T01:27:39.597Z,0
2016-02-17T01:28:39.615Z,0
2016-02-17T01:29:39.617Z,0
2016-02-17T01:30:39.605Z,0
2016-02-17T01:31:39.608Z,0
2016-02-17T01:32:39.610Z,0
2016-02-17T01:33:39.628Z,0
2016-02-17T01:34:39.599Z,0
2016-02-17T01:35:39.619Z,0
2016-02-17T01:36:39.621Z,0
2016-02-17T01:37:39.608Z,0
2016-02-17T01:38:39.595Z,0
2016-02-17T01:39:39.598Z,0
2016-02-17T01:40:39.601Z,0
2016-02-17T01:41:39.603Z,0
2016-02-17T01:42:39.621Z,0
2016-02-17T01:43:39.624Z,0
2016-02-17T01:44:39.580Z,0
2016-02-17T01:45:39.598Z,0
2016-02-17T01:46:39.601Z,0
2016-02-17T01:47:39.588Z,0
2016-02-17T01:48:39.590Z,0
2016-02-17T01:49:39.593Z,0
2016-02-17T01:50:39.595Z,0
2016-02-17T01:51:39.583Z,0
2016-02-17T01:52:39.601Z,0
2016-02-17T01:53:39.604Z,0
2016-02-17T01:54:39.575Z,0
2016-02-17T01:55:39.594Z,0
2016-02-17T01:56:39.597Z,0
2016-02-17T01:57:39.584Z,0
2016-02-17T01:58:39.570Z,0
2016-02-17T01:59:39.573Z,0
2016-02-17T02:00:39.576Z,0
2016-02-17T02:01:39.641Z,0
2016-02-17T02:02:39.581Z,0
2016-02-17T02:03:39.583Z,0
2016-02-17T02:04:39.602Z,0
2016-02-17T02:05:39.589Z,0
2016-02-17T02:06:39.591Z,0
2016-02-17T02:07:39.595Z,0
2016-02-17T02:08:39.566Z,0
2016-02-17T02:09:39.569Z,0
2016-02-17T02:10:39.572Z,0
2016-02-17T02:11:39.574Z,0
2016-02-17T02:12:39.577Z,0
2016-02-17T02:13:39.596Z,0
2016-02-17T02:14:39.582Z,0
2016-02-17T02:15:39.551Z,0
2016-02-17T02:16:39.570Z,0
2016-02-17T02:17:39.573Z,0
2016-02-17T02:18:39.576Z,0
2016-02-17T02:19:39.578Z,0
2016-02-17T02:20:39.564Z,0
2016-02-17T02:21:39.583Z,0
2016-02-17T02:22:39.570Z,0
2016-02-17T02:23:39.573Z,0
2016-02-17T02:24:39.575Z,0
2016-02-17T02:25:39.563Z,0
2016-02-17T02:26:39.566Z,0
2016-02-17T02:27:39.554Z,0
2016-02-17T02:28:39.571Z,0
2016-02-17T02:29:39.559Z,0
2016-02-17T02:30:39.562Z,0
2016-02-17T02:31:39.564Z,0
2016-02-17T02:32:39.535Z,0
2016-02-17T02:33:39.553Z,0
2016-02-17T02:34:39.541Z,0
2016-02-17T02:35:39.543Z,0
2016-02-17T02:36:39.562Z,0
2016-02-17T02:37:39.548Z,0
2016-02-17T02:38:39.551Z,0
2016-02-17T02:39:39.554Z,0
2016-02-17T02:40:39.541Z,0
2016-02-17T02:41:39.591Z,0
2016-02-17T02:42:39.547Z,0
2016-02-17T02:43:39.394Z,0
2016-02-17T02:44:39.552Z,0
2016-02-17T02:45:39.539Z,0
2016-02-17T02:46:39.542Z,0
2016-02-17T02:47:39.530Z,0
2016-02-17T02:48:39.516Z,0
2016-02-17T02:49:39.519Z,0
2016-02-17T02:50:39.537Z,0
2016-02-17T02:51:39.524Z,0
2016-02-17T02:52:39.511Z,0
2016-02-17T02:53:39.545Z,0
2016-02-17T02:54:39.516Z,0
2016-02-17T02:55:39.535Z,0
2016-02-17T02:56:39.522Z,0
2016-02-17T02:57:39.541Z,0
2016-02-17T02:58:39.527Z,0
2016-02-17T02:59:39.546Z,0
2016-02-17T03:00:39.517Z,0
2016-02-17T03:01:39.551Z,0
2016-02-17T03:02:39.522Z,0
2016-02-17T03:03:39.541Z,0
2016-02-17T03:04:39.512Z,0
2016-02-17T03:05:39.531Z,0
2016-02-17T03:06:39.501Z,0
2016-02-17T03:07:39.520Z,0
2016-02-17T03:08:39.507Z,0
2016-02-17T03:09:39.541Z,0
2016-02-17T03:10:39.497Z,0
2016-02-17T03:11:39.515Z,0
2016-02-17T03:12:39.503Z,0
2016-02-17T03:13:39.349Z,0
2016-02-17T03:14:39.523Z,0
2016-02-17T03:15:39.541Z,0
2016-02-17T03:16:39.498Z,0
2016-02-17T03:17:39.531Z,0
2016-02-17T03:18:39.488Z,0
2016-02-17T03:19:39.490Z,0
2016-02-17T03:20:39.493Z,0
2016-02-17T03:21:39.355Z,0
2016-02-17T03:22:39.498Z,0
2016-02-17T03:23:39.485Z,0
2016-02-17T03:24:39.488Z,0
2016-02-17T03:25:39.475Z,0
2016-02-17T03:26:39.493Z,0
2016-02-17T03:27:39.496Z,0
2016-02-17T03:28:39.499Z,0
2016-02-17T03:29:39.485Z,0
2016-02-17T03:30:39.504Z,0
2016-02-17T03:31:39.490Z,0
2016-02-17T03:32:39.479Z,0
2016-02-17T03:33:39.481Z,0
2016-02-17T03:34:39.484Z,0
2016-02-17T03:35:39.487Z,0
2016-02-17T03:36:39.489Z,0
2016-02-17T03:37:39.523Z,0
2016-02-17T03:38:39.478Z,0
2016-02-17T03:39:39.481Z,0
2016-02-17T03:40:39.484Z,0
2016-02-17T03:41:39.471Z,0
2016-02-17T03:42:39.520Z,0
2016-02-17T03:43:39.476Z,0
2016-02-17T03:44:39.494Z,0
2016-02-17T03:45:39.466Z,0
2016-02-17T03:46:39.484Z,0
2016-02-17T03:47:39.472Z,0
2016-02-17T03:48:39.505Z,0
2016-02-17T03:49:39.461Z,0
2016-02-17T03:50:39.511Z,0
2016-02-17T03:51:39.466Z,0
2016-02-17T03:52:39.485Z,0
2016-02-17T03:53:39.457Z,0
2016-02-17T03:54:39.460Z,0
2016-02-17T03:55:39.462Z,0
2016-02-17T03:56:39.480Z,0
2016-02-17T03:57:39.468Z,0
2016-02-17T03:58:39.470Z,0
2016-02-17T03:59:39.473Z,0
2016-02-17T04:00:39.475Z,0
2016-02-17T04:01:39.447Z,0
2016-02-17T04:02:39.465Z,0
2016-02-17T04:03:39.452Z,0
2016-02-17T04:04:39.440Z,0
2016-02-17T04:05:39.473Z,0
2016-02-17T04:06:39.460Z,0
2016-02-17T04:07:39.447Z,0
2016-02-17T04:08:39.450Z,0
2016-02-17T04:09:39.453Z,0
2016-02-17T04:10:39.471Z,0
2016-02-17T04:11:39.442Z,0
2016-02-17T04:12:39.445Z,0
2016-02-17T04:13:39.463Z,0
2016-02-17T04:14:39.481Z,0
2016-02-17T04:15:39.453Z,0
2016-02-17T04:16:39.440Z,0
2016-02-17T04:17:39.458Z,0
2016-02-17T04:18:39.461Z,0
2016-02-17T04:19:39.433Z,0
2016-02-17T04:20:39.435Z,0
2016-02-17T04:21:39.453Z,0
2016-02-17T04:22:39.425Z,0
2016-02-17T04:23:39.444Z,0
2016-02-17T04:24:39.430Z,0
2016-02-17T04:25:39.433Z,0
2016-02-17T04:26:39.421Z,0
2016-02-17T04:27:39.438Z,0
2016-02-17T04:28:39.426Z,0
2016-02-17T04:29:39.428Z,0
2016-02-17T04:30:39.431Z,0
2016-02-17T04:31:39.418Z,0
2016-02-17T04:32:39.421Z,0
2016-02-17T04:33:39.440Z,0
2016-02-17T04:34:39.426Z,0
2016-02-17T04:35:39.445Z,0
2016-02-17T04:36:39.415Z,0
2016-02-17T04:37:39.450Z,0
2016-02-17T04:38:39.406Z,0
2016-02-17T04:39:39.409Z,0
2016-02-17T04:40:39.426Z,0
2016-02-17T04:41:39.414Z,0
2016-02-17T04:42:39.431Z,0
2016-02-17T04:43:39.247Z,0
2016-02-17T04:44:39.406Z,0
2016-02-17T04:45:39.408Z,0
2016-02-17T04:46:39.412Z,0
2016-02-17T04:47:39.414Z,0
2016-02-17T04:48:39.401Z,0
2016-02-17T04:49:39.404Z,0
2016-02-17T04:50:39.422Z,0
2016-02-17T04:51:39.394Z,0
2016-02-17T04:52:39.412Z,0
2016-02-17T04:53:39.399Z,0
2016-02-17T04:54:39.402Z,0
2016-02-17T04:55:39.405Z,0
2016-02-17T04:56:39.391Z,0
2016-02-17T04:57:39.394Z,0
2016-02-17T04:58:39.412Z,0
2016-02-17T04:59:39.399Z,0
2016-02-17T05:00:39.387Z,0
2016-02-17T05:01:39.390Z,0
2016-02-17T05:02:39.393Z,0
2016-02-17T05:03:39.395Z,0
2016-02-17T05:04:39.382Z,0
2016-02-17T05:05:39.384Z,0
2016-02-17T05:06:39.403Z,0
2016-02-17T05:07:39.374Z,0
2016-02-17T05:08:39.393Z,0
2016-02-17T05:09:39.380Z,0
2016-02-17T05:10:39.382Z,0
2016-02-17T05:11:39.385Z,0
2016-02-17T05:12:39.372Z,0
2016-02-17T05:13:39.375Z,0
2016-02-17T05:14:39.377Z,0
2016-02-17T05:15:39.381Z,0
2016-02-17T05:16:39.383Z,0
2016-02-17T05:17:39.370Z,0
2016-02-17T05:18:39.373Z,0
2016-02-17T05:19:39.375Z,0
2016-02-17T05:20:39.378Z,0
2016-02-17T05:21:39.380Z,0
2016-02-17T05:22:39.414Z,0
2016-02-17T05:23:39.370Z,0
2016-02-17T05:24:39.389Z,0
2016-02-17T05:25:39.376Z,0
2016-02-17T05:26:39.363Z,0
2016-02-17T05:27:39.350Z,0
2016-02-17T05:28:39.352Z,0
2016-02-17T05:29:39.355Z,0
2016-02-17T05:30:39.343Z,0
2016-02-17T05:31:39.377Z,0
2016-02-17T05:32:39.379Z,0
2016-02-17T05:33:39.351Z,0
2016-02-17T05:34:39.368Z,0
2016-02-17T05:35:39.356Z,0
2016-02-17T05:36:39.374Z,0
2016-02-17T05:37:39.362Z,0
2016-02-17T05:38:39.365Z,0
2016-02-17T05:39:39.351Z,0
2016-02-17T05:40:39.370Z,0
2016-02-17T05:41:39.340Z,0
2016-02-17T05:42:39.359Z,0
2016-02-17T05:43:39.361Z,0
2016-02-17T05:44:39.334Z,0
2016-02-17T05:45:39.351Z,0
2016-02-17T05:46:39.339Z,0
2016-02-17T05:47:39.326Z,0
2016-02-17T05:48:39.344Z,0
2016-02-17T05:49:39.347Z,0
2016-02-17T05:50:39.317Z,0
2016-02-17T05:51:39.352Z,0
2016-02-17T05:52:39.339Z,0
2016-02-17T05:53:39.358Z,0
2016-02-17T05:54:39.345Z,0
2016-02-17T05:55:39.363Z,0
2016-02-17T05:56:39.319Z,0
2016-02-17T05:57:39.336Z,0
2016-02-17T05:58:39.339Z,0
2016-02-17T05:59:39.326Z,0
2016-02-17T06:00:39.330Z,0
2016-02-17T06:01:39.317Z,0
2016-02-17T06:02:39.319Z,0
2016-02-17T06:03:39.321Z,0
2016-02-17T06:04:39.324Z,0
2016-02-17T06:05:39.358Z,0
2016-02-17T06:06:39.314Z,0
2016-02-17T06:07:39.333Z,0
2016-02-17T06:08:39.320Z,0
2016-02-17T06:09:39.338Z,0
2016-02-17T06:10:39.309Z,0
2016-02-17T06:11:39.328Z,0
2016-02-17T06:12:39.331Z,0
2016-02-17T06:13:39.333Z,0
2016-02-17T06:14:39.337Z,0
2016-02-17T06:15:39.667Z,0
2016-02-17T06:16:39.341Z,0
2016-02-17T06:17:39.312Z,0
2016-02-17T06:18:39.300Z,0
2016-02-17T06:19:39.303Z,0
2016-02-17T06:20:39.306Z,0
2016-02-17T06:21:39.308Z,0
2016-02-17T06:22:39.310Z,0
2016-02-17T06:23:39.329Z,0
2016-02-17T06:24:39.317Z,0
2016-02-17T06:25:39.319Z,0
2016-02-17T06:26:39.290Z,0
2016-02-17T06:27:39.324Z,0
2016-02-17T06:28:39.295Z,0
2016-02-17T06:29:39.329Z,0
2016-02-17T06:30:39.129Z,0
2016-02-17T06:31:39.319Z,0
2016-02-17T06:32:39.291Z,0
2016-02-17T06:33:39.309Z,0
2016-02-17T06:34:39.280Z,0
2016-02-17T06:35:39.314Z,0
2016-02-17T06:36:39.285Z,0
2016-02-17T06:37:39.319Z,0
2016-02-17T06:38:39.275Z,0
2016-02-17T06:39:39.325Z,0
2016-02-17T06:40:39.282Z,0
2016-02-17T06:41:39.330Z,0
2016-02-17T06:42:39.287Z,0
2016-02-17T06:43:39.304Z,0
2016-02-17T06:44:39.276Z,0
2016-02-17T06:45:39.309Z,0
2016-02-17T06:46:39.281Z,0
2016-02-17T06:47:39.301Z,0
2016-02-17T06:48:39.256Z,0
2016-02-17T06:49:39.290Z,0
2016-02-17T06:50:39.276Z,0
2016-02-17T06:51:39.279Z,0
2016-02-17T06:52:39.267Z,0
2016-02-17T06:53:39.269Z,0
2016-02-17T06:54:39.302Z,0
2016-02-17T06:55:39.275Z,0
2016-02-17T06:56:39.278Z,0
2016-02-17T06:57:39.280Z,0
2016-02-17T06:58:39.282Z,0
2016-02-17T06:59:39.269Z,0
2016-02-17T07:00:39.288Z,0
2016-02-17T07:01:39.274Z,0
2016-02-17T07:02:39.325Z,0
2016-02-17T07:03:39.281Z,0
2016-02-17T07:04:39.282Z,0
2016-02-17T07:05:39.254Z,0
2016-02-17T07:06:39.257Z,0
2016-02-17T07:07:39.260Z,0
2016-02-17T07:08:39.247Z,0
2016-02-17T07:09:39.250Z,0
2016-02-17T07:10:39.252Z,0
2016-02-17T07:11:39.240Z,0
2016-02-17T07:12:39.258Z,0
2016-02-17T07:13:39.291Z,0
2016-02-17T07:14:39.248Z,0
2016-02-17T07:15:39.250Z,0
2016-02-17T07:16:39.285Z,0
2016-02-17T07:17:39.240Z,0
2016-02-17T07:18:39.226Z,0
2016-02-17T07:19:39.261Z,0
2016-02-17T07:20:39.248Z,0
2016-02-17T07:21:39.250Z,0
2016-02-17T07:22:39.285Z,0
2016-02-17T07:23:39.224Z,0
2016-02-17T07:24:39.243Z,0
2016-02-17T07:25:39.245Z,0
2016-02-17T07:26:39.248Z,0
2016-02-17T07:27:39.220Z,5
2016-02-17T07:28:39.238Z,5
2016-02-17T07:29:39.256Z,5
2016-02-17T07:30:39.228Z,5
2016-02-17T07:31:39.261Z,5
2016-02-17T07:32:39.250Z,5
2016-02-17T07:33:39.236Z,5
2016-02-17T07:34:39.239Z,5
2016-02-17T07:35:39.257Z,5
2016-02-17T07:36:39.213Z,5
2016-02-17T07:37:39.060Z,5
2016-02-17T07:38:39.265Z,5
2016-02-17T07:39:39.221Z,5
2016-02-17T07:40:39.224Z,5
2016-02-17T07:41:39.227Z,5
2016-02-17T07:42:39.244Z,5
2016-02-17T07:43:39.232Z,5
2016-02-17T07:44:39.079Z,5
2016-02-17T07:45:39.206Z,10
2016-02-17T07:46:39.223Z,10
2016-02-17T07:47:39.258Z,10
2016-02-17T07:48:39.214Z,10
2016-02-17T07:49:39.198Z,10
2016-02-17T07:50:39.199Z,10
2016-02-17T07:51:39.170Z,10
2016-02-17T07:52:39.156Z,10
2016-02-17T07:53:39.159Z,10
2016-02-17T07:54:39.131Z,10
2016-02-17T07:55:39.127Z,15
2016-02-17T07:56:39.141Z,15
2016-02-17T07:57:39.091Z,15
2016-02-17T07:58:39.087Z,15
2016-02-17T07:59:39.116Z,15
2016-02-17T08:00:39.085Z,15
2016-02-17T08:01:39.070Z,15
2016-02-17T08:02:39.103Z,15
2016-02-17T08:03:39.072Z,15
2016-02-17T08:04:38.902Z,15
2016-02-17T08:05:39.091Z,15
2016-02-17T08:06:39.108Z,10
2016-02-17T08:07:39.063Z,10
2016-02-17T08:08:39.081Z,10
2016-02-17T08:09:39.083Z,10
2016-02-17T08:10:39.054Z,10
2016-02-17T08:11:39.087Z,10
2016-02-17T08:12:39.090Z,10
2016-02-17T08:13:39.061Z,15
2016-02-17T08:14:39.078Z,15
2016-02-17T08:15:39.097Z,15
2016-02-17T08:16:39.052Z,15
2016-02-17T08:17:39.056Z,15
2016-02-17T08:18:39.058Z,20
2016-02-17T08:19:39.077Z,20
2016-02-17T08:20:39.079Z,20
2016-02-17T08:21:39.051Z,20
2016-02-17T08:22:39.100Z,20
2016-02-17T08:23:39.040Z,25
2016-02-17T08:24:39.044Z,25
2016-02-17T08:25:39.062Z,25
2016-02-17T08:26:39.033Z,25
2016-02-17T08:27:39.036Z,30
2016-02-17T08:28:39.086Z,30
2016-02-17T08:29:39.026Z,30
2016-02-17T08:30:39.029Z,30
2016-02-17T08:31:39.047Z,30
2016-02-17T08:32:39.096Z,35
2016-02-17T08:33:39.051Z,35
2016-02-17T08:34:39.040Z,35
2016-02-17T08:35:39.057Z,35
2016-02-17T08:36:39.029Z,40
2016-02-17T08:37:39.031Z,40
2016-02-17T08:38:39.050Z,45
2016-02-17T08:39:39.037Z,45
2016-02-17T08:40:39.024Z,45
2016-02-17T08:41:39.026Z,45
2016-02-17T08:42:39.029Z,45
2016-02-17T08:43:39.017Z,45
2016-02-17T08:44:39.020Z,40
2016-02-17T08:45:39.023Z,40
2016-02-17T08:46:39.040Z,40
2016-02-17T08:47:39.043Z,40
2016-02-17T08:48:39.015Z,40
2016-02-17T08:49:39.033Z,40
2016-02-17T08:50:39.005Z,45
2016-02-17T08:51:39.007Z,45
2016-02-17T08:52:39.010Z,45
2016-02-17T08:53:39.012Z,45
2016-02-17T08:54:39.015Z,45
2016-02-17T08:55:39.002Z,45
2016-02-17T08:56:39.021Z,45
2016-02-17T08:57:39.008Z,45
2016-02-17T08:58:39.010Z,45
2016-02-17T08:59:39.044Z,45
2016-02-17T09:00:39.015Z,45
2016-02-17T09:01:39.002Z,45
2016-02-17T09:02:39.021Z,45
2016-02-17T09:03:38.993Z,45
2016-02-17T09:04:39.043Z,45
2016-02-17T09:05:39.013Z,45
2016-02-17T09:06:39.001Z,50
2016-02-17T09:07:39.018Z,50
2016-02-17T09:08:39.006Z,50
2016-02-17T09:09:38.993Z,50
2016-02-17T09:10:38.979Z,50
2016-02-17T09:11:39.014Z,50
2016-02-17T09:12:38.984Z,50
2016-02-17T09:13:38.988Z,50
2016-02-17T09:14:39.007Z,50
2016-02-17T09:15:38.993Z,50
2016-02-17T09:16:38.981Z,50
2016-02-17T09:17:39.014Z,50
2016-02-17T09:18:38.986Z,50
2016-02-17T09:19:39.003Z,50
2016-02-17T09:20:38.991Z,50
2016-02-17T09:21:38.978Z,50
2016-02-17T09:22:39.011Z,50
2016-02-17T09:23:39.000Z,50
2016-02-17T09:24:38.986Z,45
2016-02-17T09:25:39.052Z,45
2016-02-17T09:26:38.991Z,45
2016-02-17T09:27:38.979Z,45
2016-02-17T09:28:38.981Z,40
2016-02-17T09:29:38.985Z,40
2016-02-17T09:30:38.987Z,35
2016-02-17T09:31:38.974Z,35
2016-02-17T09:32:38.992Z,35
2016-02-17T09:33:38.979Z,35
2016-02-17T09:34:38.998Z,35
2016-02-17T09:35:38.968Z,35
2016-02-17T09:36:38.972Z,35
2016-02-17T09:37:38.991Z,40
2016-02-17T09:38:38.821Z,40
2016-02-17T09:39:38.965Z,40
2016-02-17T09:40:38.982Z,40
2016-02-17T09:41:38.985Z,40
2016-02-17T09:42:38.973Z,40
2016-02-17T09:43:38.975Z,40
2016-02-17T09:44:38.978Z,40
2016-02-17T09:45:38.964Z,40
2016-02-17T09:46:38.967Z,40
2016-02-17T09:47:38.970Z,35
2016-02-17T09:48:38.973Z,35
2016-02-17T09:49:38.991Z,35
2016-02-17T09:50:38.978Z,35
2016-02-17T09:51:38.965Z,35
2016-02-17T09:52:38.968Z,35
2016-02-17T09:53:38.955Z,40
2016-02-17T09:54:38.989Z,40
2016-02-17T09:55:38.975Z,40
2016-02-17T09:56:38.963Z,40
2016-02-17T09:57:38.966Z,40
2016-02-17T09:58:38.969Z,40
2016-02-17T09:59:39.003Z,45
2016-02-17T10:00:38.958Z,45
2016-02-17T10:01:38.946Z,40
2016-02-17T10:02:38.995Z,40
2016-02-17T10:03:38.951Z,40
2016-02-17T10:04:38.968Z,45
2016-02-17T10:05:38.987Z,45
2016-02-17T10:06:38.818Z,45
2016-02-17T10:07:38.946Z,50
2016-02-17T10:08:38.948Z,50
2016-02-17T10:09:38.967Z,50
2016-02-17T10:10:38.938Z,50
2016-02-17T10:11:38.956Z,50
2016-02-17T10:12:39.568Z,50
2016-02-17T10:13:38.946Z,50
2016-02-17T10:14:38.948Z,50
2016-02-17T10:15:38.968Z,55
2016-02-17T10:16:38.939Z,60
2016-02-17T10:17:38.942Z,60
2016-02-17T10:18:38.959Z,60
2016-02-17T10:19:38.947Z,60
2016-02-17T10:20:38.950Z,60
2016-02-17T10:21:38.952Z,55
2016-02-17T10:22:38.955Z,55
2016-02-17T10:23:38.926Z,50
2016-02-17T10:24:38.944Z,50
2016-02-17T10:25:38.963Z,50
2016-02-17T10:26:38.950Z,50
2016-02-17T10:27:38.937Z,50
2016-02-17T10:28:38.955Z,45
2016-02-17T10:29:38.942Z,40
2016-02-17T10:30:38.930Z,40
2016-02-17T10:31:38.933Z,35
2016-02-17T10:32:38.950Z,35
2016-02-17T10:33:38.938Z,35
2016-02-17T10:34:38.956Z,35
2016-02-17T10:35:38.927Z,35
2016-02-17T10:36:38.961Z,35
2016-02-17T10:37:38.949Z,40
2016-02-17T10:38:38.921Z,40
2016-02-17T10:39:38.939Z,45
2016-02-17T10:40:38.957Z,40
2016-02-17T10:41:38.929Z,40
2016-02-17T10:42:38.932Z,40
2016-02-17T10:43:38.949Z,40
2016-02-17T10:44:39.059Z,40
2016-02-17T10:45:38.478Z,45
2016-02-17T10:46:39.323Z,45
2016-02-17T10:47:39.331Z,45
2016-02-17T10:48:38.928Z,45
2016-02-17T10:49:38.946Z,45
2016-02-17T10:50:38.933Z,45
2016-02-17T10:51:38.936Z,45
2016-02-17T10:52:38.955Z,45
2016-02-17T10:53:38.911Z,45
2016-02-17T10:54:38.914Z,50
2016-02-17T10:55:38.916Z,50
2016-02-17T10:56:38.913Z,50
2016-02-17T10:57:38.916Z,55
2016-02-17T10:58:38.918Z,60
2016-02-17T10:59:38.937Z,65
2016-02-17T11:00:38.924Z,65
2016-02-17T11:01:38.926Z,65
2016-02-17T11:02:38.929Z,65
2016-02-17T11:03:38.948Z,65
2016-02-17T11:04:38.919Z,65
2016-02-17T11:05:38.921Z,65
2016-02-17T11:06:38.940Z,70
2016-02-17T11:07:38.755Z,70
2016-02-17T11:08:38.914Z,75
2016-02-17T11:09:38.918Z,75
2016-02-17T11:10:38.935Z,75
2016-02-17T11:11:38.923Z,80
2016-02-17T11:12:38.940Z,80
2016-02-17T11:13:38.909Z,80
2016-02-17T11:14:38.946Z,80
2016-02-17T11:15:38.981Z,80
2016-02-17T11:16:38.934Z,80
2016-02-17T11:17:38.921Z,80
2016-02-17T11:18:38.923Z,80
2016-02-17T11:19:38.910Z,75
2016-02-17T11:20:38.897Z,75
2016-02-17T11:21:38.915Z,80
2016-02-17T11:22:38.934Z,80
2016-02-17T11:23:38.890Z,75
2016-02-17T11:24:38.923Z,75
2016-02-17T11:25:38.942Z,75
2016-02-17T11:26:38.945Z,75
2016-02-17T11:27:38.916Z,80
2016-02-17T11:28:38.903Z,80
2016-02-17T11:29:38.922Z,80
2016-02-17T11:30:38.925Z,80
2016-02-17T11:31:38.911Z,80
2016-02-17T11:32:38.914Z,80
2016-02-17T11:33:38.933Z,75
2016-02-17T11:34:38.983Z,65
2016-02-17T11:35:38.922Z,65
2016-02-17T11:36:38.910Z,65
2016-02-17T11:37:38.974Z,70
2016-02-17T11:38:38.899Z,70
2016-02-17T11:39:38.901Z,75
2016-02-17T11:40:38.935Z,75
2016-02-17T11:41:38.938Z,70
2016-02-17T11:42:38.926Z,65
2016-02-17T11:43:38.960Z,60
2016-02-17T11:44:38.946Z,55
2016-02-17T11:45:39.012Z,50
2016-02-17T11:46:38.921Z,55
2016-02-17T11:47:38.924Z,55
2016-02-17T11:48:38.943Z,60
2016-02-17T11:49:38.929Z,60
2016-02-17T11:50:38.884Z,55
2016-02-17T11:51:38.919Z,50
2016-02-17T11:52:38.906Z,50
2016-02-17T11:53:38.909Z,50
2016-02-17T11:54:38.912Z,50
2016-02-17T11:55:38.898Z,50
2016-02-17T11:56:38.901Z,50
2016-02-17T11:57:38.904Z,55
2016-02-17T11:58:38.906Z,55
2016-02-17T11:59:38.926Z,60
2016-02-17T12:00:38.896Z,60
2016-02-17T12:01:38.914Z,55
2016-02-17T12:02:38.934Z,55
2016-02-17T12:03:38.904Z,55
2016-02-17T12:04:38.970Z,60
2016-02-17T12:05:38.931Z,55
2016-02-17T12:06:38.917Z,60
2016-02-17T12:07:38.904Z,60
2016-02-17T12:08:38.922Z,60
2016-02-17T12:09:38.910Z,55
2016-02-17T12:10:38.913Z,50
2016-02-17T12:11:38.930Z,50
2016-02-17T12:12:38.902Z,50
2016-02-17T12:13:38.905Z,50
2016-02-17T12:14:38.924Z,50
2016-02-17T12:15:38.926Z,55
2016-02-17T12:16:38.944Z,50
2016-02-17T12:17:38.915Z,50
2016-02-17T12:18:38.935Z,55
2016-02-17T12:19:38.921Z,55
2016-02-17T12:20:38.907Z,55
2016-02-17T12:21:38.911Z,55
2016-02-17T12:22:38.913Z,50
2016-02-17T12:23:38.901Z,50
2016-02-17T12:24:38.903Z,55
2016-02-17T12:25:38.906Z,55
2016-02-17T12:26:38.909Z,55
2016-02-17T12:27:38.912Z,50
2016-02-17T12:28:38.929Z,50
2016-02-17T12:29:38.916Z,50
2016-02-17T12:30:38.935Z,50
2016-02-17T12:31:38.906Z,55
2016-02-17T12:32:38.925Z,55
2016-02-17T12:33:38.943Z,60
2016-02-17T12:34:38.899Z,60
2016-02-17T12:35:38.902Z,60
2016-02-17T12:36:38.920Z,60
2016-02-17T12:37:38.922Z,60
2016-02-17T12:38:38.910Z,55
2016-02-17T12:39:38.928Z,55
2016-02-17T12:40:38.947Z,55
2016-02-17T12:41:38.902Z,55
2016-02-17T12:42:38.905Z,55
2016-02-17T12:43:38.908Z,55
2016-02-17T12:44:38.910Z,55
2016-02-17T12:45:38.913Z,55
2016-02-17T12:46:38.900Z,55
2016-02-17T12:47:38.902Z,50
2016-02-17T12:48:38.937Z,50
2016-02-17T12:49:38.940Z,50
2016-02-17T12:50:38.895Z,50
2016-02-17T12:51:38.913Z,55
2016-02-17T12:52:38.916Z,55
2016-02-17T12:53:38.746Z,60
2016-02-17T12:54:38.921Z,60
2016-02-17T12:55:38.909Z,60
2016-02-17T12:56:38.911Z,65
2016-02-17T12:57:38.898Z,65
2016-02-17T12:58:38.917Z,65
2016-02-17T12:59:38.903Z,65
2016-02-17T13:00:38.923Z,65
2016-02-17T13:01:38.925Z,65
2016-02-17T13:02:38.958Z,65
2016-02-17T13:03:38.915Z,65
2016-02-17T13:04:38.917Z,65
2016-02-17T13:05:38.904Z,65
2016-02-17T13:06:38.906Z,65
2016-02-17T13:07:38.925Z,65
2016-02-17T13:08:38.944Z,60
2016-02-17T13:09:38.915Z,55
2016-02-17T13:10:38.917Z,55
2016-02-17T13:11:38.919Z,55
2016-02-17T13:12:38.907Z,55
2016-02-17T13:13:38.910Z,60
2016-02-17T13:14:38.928Z,60
2016-02-17T13:15:38.946Z,65
2016-02-17T13:16:38.902Z,70
2016-02-17T13:17:38.921Z,75
2016-02-17T13:18:38.924Z,80
2016-02-17T13:19:38.911Z,75
2016-02-17T13:20:38.929Z,75
2016-02-17T13:21:38.946Z,75
2016-02-17T13:22:38.935Z,70
2016-02-17T13:23:38.937Z,70
2016-02-17T13:24:38.986Z,60
2016-02-17T13:25:38.896Z,55
2016-02-17T13:26:38.898Z,50
2016-02-17T13:27:38.932Z,50
2016-02-17T13:28:38.904Z,50
2016-02-17T13:29:38.906Z,45
2016-02-17T13:30:38.956Z,45
2016-02-17T13:31:38.912Z,45
2016-02-17T13:32:38.914Z,45
2016-02-17T13:33:38.933Z,45
2016-02-17T13:34:38.903Z,45
2016-02-17T13:35:38.939Z,45
2016-02-17T13:36:38.956Z,45
2016-02-17T13:37:38.912Z,45
2016-02-17T13:38:38.930Z,40
2016-02-17T13:39:38.933Z,40
2016-02-17T13:40:38.905Z,40
2016-02-17T13:41:38.922Z,40
2016-02-17T13:42:38.941Z,40
2016-02-17T13:43:38.896Z,40
2016-02-17T13:44:38.916Z,35
2016-02-17T13:45:38.965Z,40
2016-02-17T13:46:38.905Z,45
2016-02-17T13:47:38.924Z,45
2016-02-17T13:48:38.926Z,40
2016-02-17T13:49:38.913Z,45
2016-02-17T13:50:38.979Z,45
2016-02-17T13:51:38.902Z,45
2016-02-17T13:52:38.921Z,45
2016-02-17T13:53:38.940Z,40
2016-02-17T13:54:38.910Z,40
2016-02-17T13:55:38.930Z,40
2016-02-17T13:56:38.916Z,35
2016-02-17T13:57:38.919Z,35
2016-02-17T13:58:38.937Z,35
2016-02-17T13:59:38.909Z,30
2016-02-17T14:00:38.926Z,30
2016-02-17T14:01:38.914Z,30
2016-02-17T14:02:38.917Z,30
2016-02-17T14:03:38.920Z,30
2016-02-17T14:04:38.937Z,30
2016-02-17T14:05:38.940Z,35
2016-02-17T14:06:38.928Z,35
2016-02-17T14:07:38.914Z,35
2016-02-17T14:08:38.933Z,30
2016-02-17T14:09:38.936Z,30
2016-02-17T14:10:38.953Z,30
2016-02-17T14:11:38.910Z,30
2016-02-17T14:12:38.772Z,35
2016-02-17T14:13:38.961Z,40
2016-02-17T14:14:38.919Z,40
2016-02-17T14:15:38.921Z,40
2016-02-17T14:16:38.969Z,45
2016-02-17T14:17:38.910Z,45
2016-02-17T14:18:38.913Z,55
2016-02-17T14:19:38.932Z,60
2016-02-17T14:20:38.902Z,50
2016-02-17T14:21:38.905Z,45
2016-02-17T14:22:38.924Z,40
2016-02-17T14:23:38.911Z,40
2016-02-17T14:24:38.914Z,35
2016-02-17T14:25:38.948Z,35
2016-02-17T14:26:38.903Z,35
2016-02-17T14:27:38.921Z,35
2016-02-17T14:28:38.940Z,30
2016-02-17T14:29:38.973Z,30
2016-02-17T14:30:38.914Z,30
2016-02-17T14:31:38.932Z,35
2016-02-17T14:32:38.919Z,40